Terminal Aerodrome Forecast
Issued by NWS Bismarck, ND

Home | Current Version | Previous Version | Graphics & Text | Print | Product List | Glossary On
Versions: 1 2 3 4 5 6 7 8 9 10 11 12 13 14 15 16 17 18
000
FTUS43 KBIS 161957 AAA
TAFBIS
TAF AMD
KBIS 161957Z 1620/1718 29007KT P6SM BKN025 OVC035
     FM170100 29006KT P6SM BKN025
     FM170900 28009KT P6SM SCT025
     FM171200 27005KT P6SM SCT050
     FM171700 24006KT P6SM SCT150=

USA.gov is the U.S. government's official web portal to all federal, state and local government web resources and services.